createdAt,value
2022-11-16T00:03:39.688Z,38.38
2022-11-16T00:18:42.001Z,40.00
2022-11-16T00:33:43.918Z,37.72
2022-11-16T00:48:45.840Z,35.35
2022-11-16T01:03:48.261Z,39.88
2022-11-16T01:18:52.762Z,31.42
2022-11-16T01:33:55.200Z,34.78
2022-11-16T01:49:13.739Z,38.00
2022-11-16T02:04:15.701Z,39.20
2022-11-16T02:19:48.657Z,42.88
2022-11-16T02:35:20.779Z,44.78
2022-11-16T02:50:24.719Z,38.95
2022-11-16T03:05:46.859Z,47.40
2022-11-16T03:20:53.056Z,52.20
2022-11-16T03:36:16.477Z,45.45
2022-11-16T03:51:18.459Z,56.78
2022-11-16T04:06:39.040Z,50.70
2022-11-16T04:37:22.417Z,48.17
2022-11-16T04:52:24.538Z,40.43
2022-11-16T05:07:26.628Z,38.17
2022-11-16T05:22:28.800Z,38.00
2022-11-16T05:37:30.800Z,37.78
2022-11-16T05:52:32.719Z,30.35
2022-11-16T06:07:34.812Z,24.75
2022-11-16T06:22:36.838Z,10.55
2022-11-16T06:37:38.781Z,6.97
2022-11-16T06:52:40.744Z,4.68
2022-11-16T07:07:42.781Z,4.60
2022-11-16T07:22:44.799Z,5.10
2022-11-16T07:37:46.860Z,4.35
2022-11-16T07:52:48.901Z,3.25
2022-11-16T08:07:50.921Z,4.50
2022-11-16T08:22:52.881Z,4.68
2022-11-16T08:37:54.827Z,7.57
2022-11-16T08:53:00.183Z,4.65
2022-11-16T09:08:02.279Z,4.22
2022-11-16T09:23:04.296Z,5.70
2022-11-16T09:38:07.040Z,3.90
2022-11-16T09:53:17.981Z,3.17
2022-11-16T10:08:43.598Z,4.00
2022-11-16T10:24:03.460Z,6.18
2022-11-16T10:39:13.763Z,3.47
2022-11-16T10:54:17.797Z,1.30
2022-11-16T11:09:35.802Z,3.33
2022-11-16T11:24:46.460Z,5.32
2022-11-16T11:39:48.455Z,2.22
2022-11-16T11:54:52.966Z,7.93
2022-11-16T12:10:23.760Z,4.90
2022-11-16T12:25:34.403Z,5.70
2022-11-16T12:40:50.496Z,3.63
2022-11-16T12:56:11.194Z,4.30
2022-11-16T13:11:22.033Z,5.53
2022-11-16T13:26:38.833Z,4.03
2022-11-16T13:41:43.793Z,6.60
2022-11-16T13:56:51.635Z,4.60
2022-11-16T14:11:53.548Z,5.32
2022-11-16T14:27:09.903Z,6.50
2022-11-16T14:42:24.973Z,5.55
2022-11-16T14:57:26.925Z,4.03
2022-11-16T15:12:42.376Z,4.28
2022-11-16T15:27:44.352Z,4.63
2022-11-16T15:42:46.435Z,4.50
2022-11-16T15:58:00.114Z,4.28
2022-11-16T16:13:02.932Z,4.43
2022-11-16T16:28:05.287Z,7.13
2022-11-16T16:43:07.198Z,5.38
2022-11-16T16:58:12.343Z,6.97
2022-11-16T17:13:14.208Z,7.57
2022-11-16T17:28:16.120Z,6.18
2022-11-16T17:43:18.096Z,6.72
2022-11-16T17:58:20.299Z,7.38
2022-11-16T18:13:22.357Z,7.07
2022-11-16T18:28:25.919Z,7.70
2022-11-16T18:43:27.997Z,6.45
2022-11-16T19:13:58.105Z,8.75
2022-11-16T19:29:01.836Z,10.05
2022-11-16T19:44:03.878Z,9.10
2022-11-16T19:59:05.817Z,12.20
2022-11-16T20:14:10.852Z,11.23
2022-11-16T20:29:14.634Z,10.00
2022-11-16T20:44:19.783Z,8.30
2022-11-16T20:59:21.882Z,9.63
2022-11-16T21:14:24.117Z,9.80
2022-11-16T21:29:26.104Z,10.02
2022-11-16T21:44:42.037Z,9.43
2022-11-16T21:59:44.197Z,11.10
2022-11-16T22:14:46.083Z,9.85
2022-11-16T22:29:48.014Z,8.80
2022-11-16T22:44:49.979Z,8.27
2022-11-16T22:59:51.938Z,9.50
2022-11-16T23:15:12.355Z,8.82
2022-11-16T23:30:14.477Z,9.30
2022-11-16T23:45:16.967Z,9.50
